sensor_id;sensor_type;location;lat;lon;timestamp;P1;durP1;ratioP1;P2;durP2;ratioP2
52554;SDS011;38455;52.710;6.502;2023-06-22T00:01:53;32.90;;;23.85;;
52554;SDS011;38455;52.710;6.502;2023-06-22T00:04:19;35.63;;;24.77;;
52554;SDS011;38455;52.710;6.502;2023-06-22T00:06:45;33.38;;;23.83;;
52554;SDS011;38455;52.710;6.502;2023-06-22T00:09:10;35.85;;;24.23;;
52554;SDS011;38455;52.710;6.502;2023-06-22T00:11:36;34.05;;;24.00;;
52554;SDS011;38455;52.710;6.502;2023-06-22T00:14:03;39.60;;;24.67;;
52554;SDS011;38455;52.710;6.502;2023-06-22T00:16:29;33.72;;;24.25;;
52554;SDS011;38455;52.710;6.502;2023-06-22T00:18:55;35.67;;;24.17;;
52554;SDS011;38455;52.710;6.502;2023-06-22T00:21:21;37.75;;;27.08;;
52554;SDS011;38455;52.710;6.502;2023-06-22T00:23:46;36.20;;;24.33;;
52554;SDS011;38455;52.710;6.502;2023-06-22T00:26:12;32.50;;;24.42;;
52554;SDS011;38455;52.710;6.502;2023-06-22T00:28:38;35.70;;;24.65;;
52554;SDS011;38455;52.710;6.502;2023-06-22T00:31:04;38.38;;;26.40;;
52554;SDS011;38455;52.710;6.502;2023-06-22T00:33:30;33.03;;;24.83;;
52554;SDS011;38455;52.710;6.502;2023-06-22T00:35:56;36.13;;;26.33;;
52554;SDS011;38455;52.710;6.502;2023-06-22T00:38:22;40.78;;;27.80;;
52554;SDS011;38455;52.710;6.502;2023-06-22T00:40:48;36.30;;;26.67;;
52554;SDS011;38455;52.710;6.502;2023-06-22T00:43:14;39.35;;;26.58;;
52554;SDS011;38455;52.710;6.502;2023-06-22T00:45:39;33.40;;;25.88;;
52554;SDS011;38455;52.710;6.502;2023-06-22T00:48:05;36.40;;;24.63;;
52554;SDS011;38455;52.710;6.502;2023-06-22T00:50:32;34.83;;;25.35;;
52554;SDS011;38455;52.710;6.502;2023-06-22T00:53:08;35.83;;;26.50;;
52554;SDS011;38455;52.710;6.502;2023-06-22T00:55:36;44.03;;;27.50;;
52554;SDS011;38455;52.710;6.502;2023-06-22T00:58:04;42.78;;;29.75;;
52554;SDS011;38455;52.710;6.502;2023-06-22T01:00:35;40.42;;;28.95;;
52554;SDS011;38455;52.710;6.502;2023-06-22T01:03:02;45.45;;;31.40;;
52554;SDS011;38455;52.710;6.502;2023-06-22T01:05:28;48.15;;;30.30;;
52554;SDS011;38455;52.710;6.502;2023-06-22T01:16:05;43.47;;;29.95;;
52554;SDS011;38455;52.710;6.502;2023-06-22T01:18:35;41.25;;;30.00;;
52554;SDS011;38455;52.710;6.502;2023-06-22T01:21:05;46.13;;;30.73;;
52554;SDS011;38455;52.710;6.502;2023-06-22T01:23:39;43.00;;;30.35;;
52554;SDS011;38455;52.710;6.502;2023-06-22T01:28:46;46.92;;;30.65;;
52554;SDS011;38455;52.710;6.502;2023-06-22T01:31:18;52.03;;;29.92;;
52554;SDS011;38455;52.710;6.502;2023-06-22T01:33:55;40.35;;;29.63;;
52554;SDS011;38455;52.710;6.502;2023-06-22T01:36:24;40.45;;;28.77;;
52554;SDS011;38455;52.710;6.502;2023-06-22T01:38:51;44.28;;;29.88;;
52554;SDS011;38455;52.710;6.502;2023-06-22T01:41:18;41.45;;;30.17;;
52554;SDS011;38455;52.710;6.502;2023-06-22T01:43:45;40.45;;;29.55;;
52554;SDS011;38455;52.710;6.502;2023-06-22T01:46:13;44.22;;;29.85;;
52554;SDS011;38455;52.710;6.502;2023-06-22T01:48:39;47.40;;;30.20;;
52554;SDS011;38455;52.710;6.502;2023-06-22T01:51:05;40.30;;;29.13;;
52554;SDS011;38455;52.710;6.502;2023-06-22T01:53:31;40.47;;;27.63;;
52554;SDS011;38455;52.710;6.502;2023-06-22T01:55:57;44.13;;;31.05;;
52554;SDS011;38455;52.710;6.502;2023-06-22T01:58:25;46.58;;;31.80;;
52554;SDS011;38455;52.710;6.502;2023-06-22T02:01:10;44.17;;;31.38;;
52554;SDS011;38455;52.710;6.502;2023-06-22T02:03:41;48.03;;;32.35;;
52554;SDS011;38455;52.710;6.502;2023-06-22T02:06:22;49.15;;;33.03;;
52554;SDS011;38455;52.710;6.502;2023-06-22T02:08:51;46.10;;;33.33;;
52554;SDS011;38455;52.710;6.502;2023-06-22T02:11:22;53.60;;;31.73;;
52554;SDS011;38455;52.710;6.502;2023-06-22T02:13:50;47.15;;;34.60;;
52554;SDS011;38455;52.710;6.502;2023-06-22T02:16:16;52.65;;;34.08;;
52554;SDS011;38455;52.710;6.502;2023-06-22T02:18:47;49.35;;;34.15;;
52554;SDS011;38455;52.710;6.502;2023-06-22T02:21:17;50.83;;;33.38;;
52554;SDS011;38455;52.710;6.502;2023-06-22T02:23:46;53.60;;;35.78;;
52554;SDS011;38455;52.710;6.502;2023-06-22T02:26:12;54.35;;;35.70;;
52554;SDS011;38455;52.710;6.502;2023-06-22T02:28:38;44.20;;;32.30;;
52554;SDS011;38455;52.710;6.502;2023-06-22T02:31:04;47.47;;;33.35;;
52554;SDS011;38455;52.710;6.502;2023-06-22T02:33:30;50.65;;;36.53;;
52554;SDS011;38455;52.710;6.502;2023-06-22T02:35:55;47.85;;;35.17;;
52554;SDS011;38455;52.710;6.502;2023-06-22T02:38:21;44.38;;;34.42;;
52554;SDS011;38455;52.710;6.502;2023-06-22T02:40:49;50.42;;;35.15;;
52554;SDS011;38455;52.710;6.502;2023-06-22T02:43:16;44.20;;;32.30;;
52554;SDS011;38455;52.710;6.502;2023-06-22T02:45:41;48.45;;;34.35;;
52554;SDS011;38455;52.710;6.502;2023-06-22T02:48:07;53.45;;;37.17;;
52554;SDS011;38455;52.710;6.502;2023-06-22T02:50:33;50.30;;;36.10;;
52554;SDS011;38455;52.710;6.502;2023-06-22T02:52:58;55.55;;;37.30;;
52554;SDS011;38455;52.710;6.502;2023-06-22T02:55:24;52.47;;;36.00;;
52554;SDS011;38455;52.710;6.502;2023-06-22T02:57:50;50.67;;;36.00;;
52554;SDS011;38455;52.710;6.502;2023-06-22T03:00:17;54.45;;;36.90;;
52554;SDS011;38455;52.710;6.502;2023-06-22T03:02:48;51.15;;;36.55;;
52554;SDS011;38455;52.710;6.502;2023-06-22T03:05:14;55.80;;;36.92;;
52554;SDS011;38455;52.710;6.502;2023-06-22T03:07:46;53.40;;;36.97;;
52554;SDS011;38455;52.710;6.502;2023-06-22T03:10:12;56.80;;;38.25;;
52554;SDS011;38455;52.710;6.502;2023-06-22T03:12:39;59.88;;;40.38;;
52554;SDS011;38455;52.710;6.502;2023-06-22T03:15:09;58.65;;;38.70;;
52554;SDS011;38455;52.710;6.502;2023-06-22T03:17:36;50.33;;;34.22;;
52554;SDS011;38455;52.710;6.502;2023-06-22T03:20:04;52.17;;;35.53;;
52554;SDS011;38455;52.710;6.502;2023-06-22T03:22:34;51.05;;;37.47;;
52554;SDS011;38455;52.710;6.502;2023-06-22T03:25:01;50.75;;;35.55;;
52554;SDS011;38455;52.710;6.502;2023-06-22T03:27:27;59.63;;;37.40;;
52554;SDS011;38455;52.710;6.502;2023-06-22T03:29:53;48.53;;;35.78;;
52554;SDS011;38455;52.710;6.502;2023-06-22T03:32:18;53.00;;;36.17;;
52554;SDS011;38455;52.710;6.502;2023-06-22T03:34:44;54.10;;;37.90;;
52554;SDS011;38455;52.710;6.502;2023-06-22T03:37:13;55.88;;;38.47;;
52554;SDS011;38455;52.710;6.502;2023-06-22T03:39:40;51.50;;;35.67;;
52554;SDS011;38455;52.710;6.502;2023-06-22T03:42:06;58.30;;;36.20;;
52554;SDS011;38455;52.710;6.502;2023-06-22T03:44:32;56.08;;;38.58;;
52554;SDS011;38455;52.710;6.502;2023-06-22T03:46:57;56.13;;;37.50;;
52554;SDS011;38455;52.710;6.502;2023-06-22T03:49:23;53.65;;;37.75;;
52554;SDS011;38455;52.710;6.502;2023-06-22T03:51:49;58.13;;;38.53;;
52554;SDS011;38455;52.710;6.502;2023-06-22T03:54:15;60.20;;;38.17;;
52554;SDS011;38455;52.710;6.502;2023-06-22T03:56:40;53.28;;;35.13;;
52554;SDS011;38455;52.710;6.502;2023-06-22T03:59:06;54.38;;;37.88;;
52554;SDS011;38455;52.710;6.502;2023-06-22T04:01:32;57.90;;;38.78;;
52554;SDS011;38455;52.710;6.502;2023-06-22T04:03:57;53.25;;;37.75;;
52554;SDS011;38455;52.710;6.502;2023-06-22T04:06:23;48.25;;;34.38;;
52554;SDS011;38455;52.710;6.502;2023-06-22T04:08:49;55.70;;;38.20;;
52554;SDS011;38455;52.710;6.502;2023-06-22T04:11:19;56.17;;;38.78;;
52554;SDS011;38455;52.710;6.502;2023-06-22T04:13:45;57.45;;;39.83;;
52554;SDS011;38455;52.710;6.502;2023-06-22T04:16:10;57.13;;;38.85;;
52554;SDS011;38455;52.710;6.502;2023-06-22T04:18:36;54.05;;;37.00;;
52554;SDS011;38455;52.710;6.502;2023-06-22T04:21:02;59.60;;;39.53;;
52554;SDS011;38455;52.710;6.502;2023-06-22T04:23:28;55.53;;;38.70;;
52554;SDS011;38455;52.710;6.502;2023-06-22T04:25:54;56.40;;;40.55;;
52554;SDS011;38455;52.710;6.502;2023-06-22T04:28:21;57.22;;;39.60;;
52554;SDS011;38455;52.710;6.502;2023-06-22T04:30:47;55.75;;;39.75;;
52554;SDS011;38455;52.710;6.502;2023-06-22T04:33:14;60.67;;;41.60;;
52554;SDS011;38455;52.710;6.502;2023-06-22T04:35:40;57.92;;;38.67;;
52554;SDS011;38455;52.710;6.502;2023-06-22T04:38:09;61.20;;;42.53;;
52554;SDS011;38455;52.710;6.502;2023-06-22T04:40:38;56.28;;;39.08;;
52554;SDS011;38455;52.710;6.502;2023-06-22T04:43:05;50.80;;;37.47;;
52554;SDS011;38455;52.710;6.502;2023-06-22T04:45:32;53.03;;;36.65;;
52554;SDS011;38455;52.710;6.502;2023-06-22T04:47:58;52.47;;;37.72;;
52554;SDS011;38455;52.710;6.502;2023-06-22T04:50:24;54.50;;;36.85;;
52554;SDS011;38455;52.710;6.502;2023-06-22T04:52:50;45.05;;;33.67;;
52554;SDS011;38455;52.710;6.502;2023-06-22T04:55:16;44.58;;;33.90;;
52554;SDS011;38455;52.710;6.502;2023-06-22T04:57:44;41.92;;;32.08;;
52554;SDS011;38455;52.710;6.502;2023-06-22T05:00:13;45.15;;;33.92;;
52554;SDS011;38455;52.710;6.502;2023-06-22T05:02:43;41.95;;;31.27;;
52554;SDS011;38455;52.710;6.502;2023-06-22T05:05:11;41.63;;;29.52;;
52554;SDS011;38455;52.710;6.502;2023-06-22T05:07:45;38.72;;;30.17;;
52554;SDS011;38455;52.710;6.502;2023-06-22T05:10:14;38.53;;;28.77;;
52554;SDS011;38455;52.710;6.502;2023-06-22T05:12:40;35.38;;;27.95;;
52554;SDS011;38455;52.710;6.502;2023-06-22T05:15:07;38.17;;;29.90;;
52554;SDS011;38455;52.710;6.502;2023-06-22T05:17:34;37.97;;;28.13;;
52554;SDS011;38455;52.710;6.502;2023-06-22T05:20:00;32.00;;;26.90;;
52554;SDS011;38455;52.710;6.502;2023-06-22T05:22:27;36.10;;;29.75;;
52554;SDS011;38455;52.710;6.502;2023-06-22T05:24:53;35.17;;;27.60;;
52554;SDS011;38455;52.710;6.502;2023-06-22T05:27:18;34.92;;;26.45;;
52554;SDS011;38455;52.710;6.502;2023-06-22T05:29:44;32.65;;;25.08;;
52554;SDS011;38455;52.710;6.502;2023-06-22T05:32:10;36.45;;;26.75;;
52554;SDS011;38455;52.710;6.502;2023-06-22T05:34:36;29.58;;;25.33;;
52554;SDS011;38455;52.710;6.502;2023-06-22T05:37:02;30.65;;;24.65;;
52554;SDS011;38455;52.710;6.502;2023-06-22T05:39:28;33.13;;;25.90;;
52554;SDS011;38455;52.710;6.502;2023-06-22T05:41:53;31.83;;;26.05;;
52554;SDS011;38455;52.710;6.502;2023-06-22T05:44:19;29.25;;;23.13;;
52554;SDS011;38455;52.710;6.502;2023-06-22T05:46:45;29.15;;;22.35;;
52554;SDS011;38455;52.710;6.502;2023-06-22T05:49:14;29.98;;;23.05;;
52554;SDS011;38455;52.710;6.502;2023-06-22T05:51:40;30.33;;;23.27;;
52554;SDS011;38455;52.710;6.502;2023-06-22T05:54:06;30.27;;;24.13;;
52554;SDS011;38455;52.710;6.502;2023-06-22T05:56:33;31.13;;;23.50;;
52554;SDS011;38455;52.710;6.502;2023-06-22T05:58:59;32.28;;;23.55;;
52554;SDS011;38455;52.710;6.502;2023-06-22T06:01:25;29.10;;;22.25;;
52554;SDS011;38455;52.710;6.502;2023-06-22T06:03:51;26.13;;;21.90;;
52554;SDS011;38455;52.710;6.502;2023-06-22T06:06:18;25.75;;;21.80;;
52554;SDS011;38455;52.710;6.502;2023-06-22T06:08:46;23.33;;;20.80;;
52554;SDS011;38455;52.710;6.502;2023-06-22T06:11:12;23.67;;;19.60;;
52554;SDS011;38455;52.710;6.502;2023-06-22T06:13:38;25.30;;;20.27;;
52554;SDS011;38455;52.710;6.502;2023-06-22T06:16:03;25.83;;;21.35;;
52554;SDS011;38455;52.710;6.502;2023-06-22T06:18:29;23.70;;;19.98;;
52554;SDS011;38455;52.710;6.502;2023-06-22T06:20:55;24.15;;;18.30;;
52554;SDS011;38455;52.710;6.502;2023-06-22T06:23:20;19.98;;;17.60;;
52554;SDS011;38455;52.710;6.502;2023-06-22T06:25:46;22.65;;;17.13;;
52554;SDS011;38455;52.710;6.502;2023-06-22T06:28:12;23.67;;;19.63;;
52554;SDS011;38455;52.710;6.502;2023-06-22T06:30:37;20.67;;;16.55;;
52554;SDS011;38455;52.710;6.502;2023-06-22T06:33:03;25.50;;;19.08;;
52554;SDS011;38455;52.710;6.502;2023-06-22T06:35:33;25.42;;;17.30;;
52554;SDS011;38455;52.710;6.502;2023-06-22T06:37:59;21.17;;;18.10;;
52554;SDS011;38455;52.710;6.502;2023-06-22T06:40:25;19.48;;;17.35;;
52554;SDS011;38455;52.710;6.502;2023-06-22T06:42:51;19.00;;;16.10;;
52554;SDS011;38455;52.710;6.502;2023-06-22T06:45:18;18.95;;;15.43;;
52554;SDS011;38455;52.710;6.502;2023-06-22T06:47:45;21.63;;;15.52;;
52554;SDS011;38455;52.710;6.502;2023-06-22T06:50:11;18.55;;;14.90;;
52554;SDS011;38455;52.710;6.502;2023-06-22T06:52:37;15.63;;;13.48;;
52554;SDS011;38455;52.710;6.502;2023-06-22T06:55:03;16.65;;;14.63;;
52554;SDS011;38455;52.710;6.502;2023-06-22T06:57:32;17.52;;;14.93;;
52554;SDS011;38455;52.710;6.502;2023-06-22T06:59:58;15.85;;;12.70;;
52554;SDS011;38455;52.710;6.502;2023-06-22T07:02:25;17.00;;;12.57;;
52554;SDS011;38455;52.710;6.502;2023-06-22T07:04:53;16.73;;;13.40;;
52554;SDS011;38455;52.710;6.502;2023-06-22T07:07:20;15.45;;;12.82;;
52554;SDS011;38455;52.710;6.502;2023-06-22T07:09:46;21.40;;;12.50;;
52554;SDS011;38455;52.710;6.502;2023-06-22T07:12:12;17.80;;;12.93;;
52554;SDS011;38455;52.710;6.502;2023-06-22T07:14:38;20.17;;;12.13;;
52554;SDS011;38455;52.710;6.502;2023-06-22T07:17:04;13.10;;;10.90;;
52554;SDS011;38455;52.710;6.502;2023-06-22T07:19:29;16.52;;;10.90;;
52554;SDS011;38455;52.710;6.502;2023-06-22T07:21:56;13.70;;;10.30;;
52554;SDS011;38455;52.710;6.502;2023-06-22T07:24:22;14.63;;;9.65;;
52554;SDS011;38455;52.710;6.502;2023-06-22T07:26:49;13.88;;;9.73;;
52554;SDS011;38455;52.710;6.502;2023-06-22T07:29:18;11.82;;;10.52;;
52554;SDS011;38455;52.710;6.502;2023-06-22T07:31:48;11.55;;;10.15;;
52554;SDS011;38455;52.710;6.502;2023-06-22T07:34:16;11.45;;;9.40;;
52554;SDS011;38455;52.710;6.502;2023-06-22T07:36:43;11.60;;;8.57;;
52554;SDS011;38455;52.710;6.502;2023-06-22T07:39:09;10.90;;;7.93;;
52554;SDS011;38455;52.710;6.502;2023-06-22T07:41:35;10.00;;;7.32;;
52554;SDS011;38455;52.710;6.502;2023-06-22T07:44:01;10.07;;;7.38;;
52554;SDS011;38455;52.710;6.502;2023-06-22T07:46:28;12.98;;;8.02;;
52554;SDS011;38455;52.710;6.502;2023-06-22T07:48:55;8.45;;;6.80;;
52554;SDS011;38455;52.710;6.502;2023-06-22T07:51:24;9.18;;;7.00;;
52554;SDS011;38455;52.710;6.502;2023-06-22T07:53:50;8.82;;;6.68;;
52554;SDS011;38455;52.710;6.502;2023-06-22T07:56:16;9.15;;;6.40;;
52554;SDS011;38455;52.710;6.502;2023-06-22T07:58:46;10.02;;;6.15;;
52554;SDS011;38455;52.710;6.502;2023-06-22T08:01:13;7.63;;;5.88;;
52554;SDS011;38455;52.710;6.502;2023-06-22T08:03:39;8.20;;;6.50;;
52554;SDS011;38455;52.710;6.502;2023-06-22T08:06:06;11.68;;;6.72;;
52554;SDS011;38455;52.710;6.502;2023-06-22T08:08:34;8.63;;;6.95;;
52554;SDS011;38455;52.710;6.502;2023-06-22T08:11:02;8.60;;;6.72;;
52554;SDS011;38455;52.710;6.502;2023-06-22T08:13:28;8.73;;;5.90;;
52554;SDS011;38455;52.710;6.502;2023-06-22T08:15:54;7.10;;;5.85;;
52554;SDS011;38455;52.710;6.502;2023-06-22T08:18:20;9.23;;;5.80;;
52554;SDS011;38455;52.710;6.502;2023-06-22T08:20:45;10.20;;;5.80;;
52554;SDS011;38455;52.710;6.502;2023-06-22T08:23:11;12.57;;;6.30;;
52554;SDS011;38455;52.710;6.502;2023-06-22T08:25:37;7.68;;;5.32;;
52554;SDS011;38455;52.710;6.502;2023-06-22T08:28:03;6.75;;;5.40;;
52554;SDS011;38455;52.710;6.502;2023-06-22T08:30:29;9.13;;;6.03;;
52554;SDS011;38455;52.710;6.502;2023-06-22T08:32:55;6.82;;;5.75;;
52554;SDS011;38455;52.710;6.502;2023-06-22T08:35:24;9.55;;;5.45;;
52554;SDS011;38455;52.710;6.502;2023-06-22T08:37:50;6.00;;;5.35;;
52554;SDS011;38455;52.710;6.502;2023-06-22T08:40:18;6.90;;;5.47;;
52554;SDS011;38455;52.710;6.502;2023-06-22T08:42:45;6.97;;;6.00;;
52554;SDS011;38455;52.710;6.502;2023-06-22T08:45:11;7.38;;;5.57;;
52554;SDS011;38455;52.710;6.502;2023-06-22T08:47:38;9.15;;;5.85;;
52554;SDS011;38455;52.710;6.502;2023-06-22T08:50:04;8.93;;;5.72;;
52554;SDS011;38455;52.710;6.502;2023-06-22T08:52:31;8.43;;;5.95;;
52554;SDS011;38455;52.710;6.502;2023-06-22T08:54:57;9.05;;;6.00;;
52554;SDS011;38455;52.710;6.502;2023-06-22T08:57:23;8.75;;;5.63;;
52554;SDS011;38455;52.710;6.502;2023-06-22T08:59:49;9.05;;;5.20;;
52554;SDS011;38455;52.710;6.502;2023-06-22T09:02:17;7.95;;;6.22;;
52554;SDS011;38455;52.710;6.502;2023-06-22T09:04:43;7.05;;;5.10;;
52554;SDS011;38455;52.710;6.502;2023-06-22T09:07:10;7.35;;;5.28;;
52554;SDS011;38455;52.710;6.502;2023-06-22T09:09:36;7.07;;;5.97;;
52554;SDS011;38455;52.710;6.502;2023-06-22T09:12:02;6.82;;;5.57;;
52554;SDS011;38455;52.710;6.502;2023-06-22T09:14:28;8.30;;;5.85;;
52554;SDS011;38455;52.710;6.502;2023-06-22T09:16:53;8.75;;;6.07;;
52554;SDS011;38455;52.710;6.502;2023-06-22T09:19:19;11.07;;;5.65;;
52554;SDS011;38455;52.710;6.502;2023-06-22T09:21:45;6.78;;;5.50;;
52554;SDS011;38455;52.710;6.502;2023-06-22T09:24:10;10.30;;;6.03;;
52554;SDS011;38455;52.710;6.502;2023-06-22T09:26:36;6.93;;;5.15;;
52554;SDS011;38455;52.710;6.502;2023-06-22T09:29:04;8.25;;;5.20;;
52554;SDS011;38455;52.710;6.502;2023-06-22T09:31:30;5.93;;;5.00;;
52554;SDS011;38455;52.710;6.502;2023-06-22T09:33:56;7.60;;;5.45;;
52554;SDS011;38455;52.710;6.502;2023-06-22T09:36:22;6.18;;;4.65;;
52554;SDS011;38455;52.710;6.502;2023-06-22T09:38:48;7.60;;;5.32;;
52554;SDS011;38455;52.710;6.502;2023-06-22T09:41:20;8.73;;;5.82;;
52554;SDS011;38455;52.710;6.502;2023-06-22T09:43:46;9.00;;;6.00;;
52554;SDS011;38455;52.710;6.502;2023-06-22T09:46:13;9.85;;;4.88;;
52554;SDS011;38455;52.710;6.502;2023-06-22T09:48:40;7.22;;;5.13;;
52554;SDS011;38455;52.710;6.502;2023-06-22T09:51:05;7.43;;;5.30;;
52554;SDS011;38455;52.710;6.502;2023-06-22T09:53:31;7.18;;;5.18;;
52554;SDS011;38455;52.710;6.502;2023-06-22T09:55:57;8.65;;;5.22;;
52554;SDS011;38455;52.710;6.502;2023-06-22T09:58:23;9.55;;;5.20;;
52554;SDS011;38455;52.710;6.502;2023-06-22T10:00:48;7.07;;;5.40;;
52554;SDS011;38455;52.710;6.502;2023-06-22T10:03:14;7.07;;;5.20;;
52554;SDS011;38455;52.710;6.502;2023-06-22T10:05:40;7.18;;;5.22;;
52554;SDS011;38455;52.710;6.502;2023-06-22T10:08:05;7.07;;;4.57;;
52554;SDS011;38455;52.710;6.502;2023-06-22T10:10:32;6.57;;;4.72;;
52554;SDS011;38455;52.710;6.502;2023-06-22T10:13:02;7.13;;;4.60;;
52554;SDS011;38455;52.710;6.502;2023-06-22T10:15:35;8.27;;;6.13;;
52554;SDS011;38455;52.710;6.502;2023-06-22T10:18:00;8.40;;;5.57;;
52554;SDS011;38455;52.710;6.502;2023-06-22T10:20:26;8.10;;;5.10;;
52554;SDS011;38455;52.710;6.502;2023-06-22T10:22:53;6.00;;;4.45;;
52554;SDS011;38455;52.710;6.502;2023-06-22T10:25:19;5.82;;;4.70;;
52554;SDS011;38455;52.710;6.502;2023-06-22T10:27:44;5.63;;;4.72;;
52554;SDS011;38455;52.710;6.502;2023-06-22T10:30:11;8.35;;;4.55;;
52554;SDS011;38455;52.710;6.502;2023-06-22T10:32:41;6.00;;;4.22;;
52554;SDS011;38455;52.710;6.502;2023-06-22T10:35:10;8.32;;;5.20;;
52554;SDS011;38455;52.710;6.502;2023-06-22T10:37:35;8.73;;;4.93;;
52554;SDS011;38455;52.710;6.502;2023-06-22T10:40:01;7.97;;;4.47;;
52554;SDS011;38455;52.710;6.502;2023-06-22T10:42:29;6.47;;;4.80;;
52554;SDS011;38455;52.710;6.502;2023-06-22T10:44:54;5.03;;;4.22;;
52554;SDS011;38455;52.710;6.502;2023-06-22T10:47:20;6.13;;;4.47;;
52554;SDS011;38455;52.710;6.502;2023-06-22T10:49:46;8.43;;;5.75;;
52554;SDS011;38455;52.710;6.502;2023-06-22T10:52:11;5.45;;;4.05;;
52554;SDS011;38455;52.710;6.502;2023-06-22T10:54:37;5.35;;;3.85;;
52554;SDS011;38455;52.710;6.502;2023-06-22T10:57:03;5.53;;;3.72;;
52554;SDS011;38455;52.710;6.502;2023-06-22T10:59:29;4.97;;;3.70;;
52554;SDS011;38455;52.710;6.502;2023-06-22T11:01:55;8.70;;;4.80;;
52554;SDS011;38455;52.710;6.502;2023-06-22T11:04:22;5.85;;;4.70;;
52554;SDS011;38455;52.710;6.502;2023-06-22T11:06:48;5.63;;;4.07;;
52554;SDS011;38455;52.710;6.502;2023-06-22T11:09:14;6.45;;;3.63;;
52554;SDS011;38455;52.710;6.502;2023-06-22T11:11:49;4.75;;;3.85;;
52554;SDS011;38455;52.710;6.502;2023-06-22T11:14:18;6.25;;;4.50;;
52554;SDS011;38455;52.710;6.502;2023-06-22T11:16:44;5.03;;;4.00;;
52554;SDS011;38455;52.710;6.502;2023-06-22T11:19:11;5.55;;;4.22;;
52554;SDS011;38455;52.710;6.502;2023-06-22T11:21:37;7.90;;;4.40;;
52554;SDS011;38455;52.710;6.502;2023-06-22T11:24:03;5.45;;;4.30;;
52554;SDS011;38455;52.710;6.502;2023-06-22T11:26:30;5.60;;;4.43;;
52554;SDS011;38455;52.710;6.502;2023-06-22T11:28:57;5.65;;;4.22;;
52554;SDS011;38455;52.710;6.502;2023-06-22T11:31:23;7.45;;;4.55;;
52554;SDS011;38455;52.710;6.502;2023-06-22T11:33:49;5.85;;;3.83;;
52554;SDS011;38455;52.710;6.502;2023-06-22T11:36:15;5.55;;;3.50;;
52554;SDS011;38455;52.710;6.502;2023-06-22T11:38:42;6.65;;;4.45;;
52554;SDS011;38455;52.710;6.502;2023-06-22T11:41:08;6.05;;;4.05;;
52554;SDS011;38455;52.710;6.502;2023-06-22T11:43:35;5.72;;;4.10;;
52554;SDS011;38455;52.710;6.502;2023-06-22T11:46:04;8.90;;;3.75;;
52554;SDS011;38455;52.710;6.502;2023-06-22T11:48:30;8.15;;;4.20;;
52554;SDS011;38455;52.710;6.502;2023-06-22T11:50:56;6.82;;;4.50;;
52554;SDS011;38455;52.710;6.502;2023-06-22T11:53:23;5.82;;;4.07;;
52554;SDS011;38455;52.710;6.502;2023-06-22T11:55:51;5.70;;;4.07;;
52554;SDS011;38455;52.710;6.502;2023-06-22T11:58:19;5.72;;;3.45;;
52554;SDS011;38455;52.710;6.502;2023-06-22T12:00:44;5.07;;;4.13;;
52554;SDS011;38455;52.710;6.502;2023-06-22T12:03:10;5.90;;;3.78;;
52554;SDS011;38455;52.710;6.502;2023-06-22T12:05:37;5.70;;;3.55;;
52554;SDS011;38455;52.710;6.502;2023-06-22T12:08:03;6.10;;;4.18;;
52554;SDS011;38455;52.710;6.502;2023-06-22T12:10:29;9.02;;;4.18;;
52554;SDS011;38455;52.710;6.502;2023-06-22T12:12:56;6.00;;;4.38;;
52554;SDS011;38455;52.710;6.502;2023-06-22T12:15:23;6.00;;;3.40;;
52554;SDS011;38455;52.710;6.502;2023-06-22T12:17:48;7.70;;;4.43;;
52554;SDS011;38455;52.710;6.502;2023-06-22T12:20:14;5.65;;;4.18;;
52554;SDS011;38455;52.710;6.502;2023-06-22T12:22:40;7.95;;;4.93;;
52554;SDS011;38455;52.710;6.502;2023-06-22T12:25:07;6.72;;;4.30;;
52554;SDS011;38455;52.710;6.502;2023-06-22T12:27:34;5.10;;;3.75;;
52554;SDS011;38455;52.710;6.502;2023-06-22T12:30:00;6.82;;;4.13;;
52554;SDS011;38455;52.710;6.502;2023-06-22T12:32:26;6.95;;;4.95;;
52554;SDS011;38455;52.710;6.502;2023-06-22T12:34:52;7.40;;;4.78;;
52554;SDS011;38455;52.710;6.502;2023-06-22T12:37:18;6.13;;;4.13;;
52554;SDS011;38455;52.710;6.502;2023-06-22T12:39:43;6.18;;;4.80;;
52554;SDS011;38455;52.710;6.502;2023-06-22T12:42:10;5.55;;;4.32;;
52554;SDS011;38455;52.710;6.502;2023-06-22T12:44:39;10.40;;;5.22;;
52554;SDS011;38455;52.710;6.502;2023-06-22T12:47:06;10.23;;;5.95;;
52554;SDS011;38455;52.710;6.502;2023-06-22T12:49:33;13.38;;;6.47;;
52554;SDS011;38455;52.710;6.502;2023-06-22T12:52:02;7.63;;;5.78;;
52554;SDS011;38455;52.710;6.502;2023-06-22T12:54:28;6.45;;;4.88;;
52554;SDS011;38455;52.710;6.502;2023-06-22T12:56:55;9.50;;;5.25;;
52554;SDS011;38455;52.710;6.502;2023-06-22T12:59:21;6.60;;;5.82;;
52554;SDS011;38455;52.710;6.502;2023-06-22T13:01:47;8.07;;;6.60;;
52554;SDS011;38455;52.710;6.502;2023-06-22T13:04:12;7.93;;;5.80;;
52554;SDS011;38455;52.710;6.502;2023-06-22T13:06:42;9.32;;;6.55;;
52554;SDS011;38455;52.710;6.502;2023-06-22T13:09:14;8.35;;;6.18;;
52554;SDS011;38455;52.710;6.502;2023-06-22T13:11:41;7.38;;;6.55;;
52554;SDS011;38455;52.710;6.502;2023-06-22T13:14:07;11.07;;;7.32;;
52554;SDS011;38455;52.710;6.502;2023-06-22T13:16:33;10.52;;;6.78;;
52554;SDS011;38455;52.710;6.502;2023-06-22T13:18:59;12.93;;;7.75;;
52554;SDS011;38455;52.710;6.502;2023-06-22T13:21:24;10.77;;;7.72;;
52554;SDS011;38455;52.710;6.502;2023-06-22T13:23:50;11.45;;;8.35;;
52554;SDS011;38455;52.710;6.502;2023-06-22T13:26:16;12.73;;;8.13;;
52554;SDS011;38455;52.710;6.502;2023-06-22T13:28:41;10.70;;;8.05;;
52554;SDS011;38455;52.710;6.502;2023-06-22T13:31:07;13.50;;;8.05;;
52554;SDS011;38455;52.710;6.502;2023-06-22T13:33:33;12.50;;;7.50;;
52554;SDS011;38455;52.710;6.502;2023-06-22T13:35:59;12.32;;;7.75;;
52554;SDS011;38455;52.710;6.502;2023-06-22T13:38:24;11.25;;;7.07;;
52554;SDS011;38455;52.710;6.502;2023-06-22T13:40:50;10.40;;;7.53;;
52554;SDS011;38455;52.710;6.502;2023-06-22T13:43:16;8.57;;;7.70;;
52554;SDS011;38455;52.710;6.502;2023-06-22T13:45:42;11.38;;;7.18;;
52554;SDS011;38455;52.710;6.502;2023-06-22T13:48:08;11.73;;;7.00;;
52554;SDS011;38455;52.710;6.502;2023-06-22T13:50:34;10.43;;;6.38;;
52554;SDS011;38455;52.710;6.502;2023-06-22T13:52:59;8.50;;;6.50;;
52554;SDS011;38455;52.710;6.502;2023-06-22T13:55:25;10.45;;;6.47;;
52554;SDS011;38455;52.710;6.502;2023-06-22T13:57:51;9.80;;;5.80;;
52554;SDS011;38455;52.710;6.502;2023-06-22T14:00:17;7.50;;;6.40;;
52554;SDS011;38455;52.710;6.502;2023-06-22T14:02:44;10.20;;;6.22;;
52554;SDS011;38455;52.710;6.502;2023-06-22T14:05:10;10.77;;;6.18;;
52554;SDS011;38455;52.710;6.502;2023-06-22T14:07:36;9.43;;;7.05;;
52554;SDS011;38455;52.710;6.502;2023-06-22T14:10:02;7.70;;;5.50;;
52554;SDS011;38455;52.710;6.502;2023-06-22T14:12:29;7.82;;;5.85;;
52554;SDS011;38455;52.710;6.502;2023-06-22T14:14:55;16.08;;;6.22;;
52554;SDS011;38455;52.710;6.502;2023-06-22T14:17:20;7.65;;;6.07;;
52554;SDS011;38455;52.710;6.502;2023-06-22T14:19:50;12.20;;;7.32;;
52554;SDS011;38455;52.710;6.502;2023-06-22T14:22:18;8.20;;;6.20;;
52554;SDS011;38455;52.710;6.502;2023-06-22T14:24:44;12.50;;;6.50;;
52554;SDS011;38455;52.710;6.502;2023-06-22T14:27:10;9.63;;;6.50;;
52554;SDS011;38455;52.710;6.502;2023-06-22T14:29:36;7.95;;;5.85;;
52554;SDS011;38455;52.710;6.502;2023-06-22T14:32:02;9.55;;;6.40;;
52554;SDS011;38455;52.710;6.502;2023-06-22T14:34:28;10.73;;;5.80;;
52554;SDS011;38455;52.710;6.502;2023-06-22T14:36:53;9.13;;;5.65;;
52554;SDS011;38455;52.710;6.502;2023-06-22T14:39:19;12.77;;;7.00;;
52554;SDS011;38455;52.710;6.502;2023-06-22T14:41:46;13.68;;;7.78;;